Portada
METAR-TAF:

METAR-TAF

Aeroports :

Annecy, França

latitud: 45-55-45N, longitud: 006-05-56E, altitud: 463 m

Observació

L'informe es va fer fa 32 minuts, a les 23:00 UTC
Vent 7 kt del Est/Nord-Est
Temperatura 17°C
Humitat 82%
Pressió 1021 hPa
Visibilitat 10 km o més
sense núvols per sota de 1500 mi sense presència de cumulonimbus.

METAR: LFLP 182300Z AUTO 06007KT CAVOK 17/14 Q1021

Hora: 01:32 (23:32 UTC)

Pronòstic

L'informe es va fer fa 9 hores i 32 minuts, a les 14:00 UTC
Pronòstic vàlid del 18 a les 15 UTC al 19 a les 15 UTC
Vent 3 kt amb direcció variable
Visibilitat 10 km o més
sense núvols per sota de 1500 mi sense presència de cumulonimbus.
Temporalment
l' 19 a les 09 UTC al 19 a les 15 UTC
Escasses núvols a una alçada de 12000 ft, Cumulus congestus.

TAF: LFLP 181400Z 1815/1915 VRB03KT CAVOK TEMPO 1909/1915 FEW120TCU

Observacions i pronòstics meteorològics de més de 4000 aeroports (METAR i TAF).

Les estacions disponibles són els punts grocs i vermells al mapa.

Posi el ratolí al punt desitjat per veure el nom de l'estació.

Feu clic per veure les observacions i els pronòstics meteorològics.

Per canviar el mapa: feu clic els botons verds amb una creu de color negre per apropar; al botó verd amb un guió per allunyar la imatge; o en les fletxes verdes per a mapes adjacents.


METAR-TAF: